sensor_id;sensor_type;location;lat;lon;timestamp;pressure;altitude;pressure_sealevel;temperature;humidity
23176;BME280;19910;42.652;23.332;2022-12-26T00:00:00;95565.13;;;2.52;97.82
23176;BME280;19910;42.652;23.332;2022-12-26T00:02:26;95562.13;;;2.48;97.99
23176;BME280;19910;42.652;23.332;2022-12-26T00:04:53;95563.72;;;2.44;97.82
23176;BME280;19910;42.652;23.332;2022-12-26T00:07:21;95568.81;;;2.45;98.04
23176;BME280;19910;42.652;23.332;2022-12-26T00:09:48;95562.94;;;2.48;98.10
23176;BME280;19910;42.652;23.332;2022-12-26T00:12:15;95563.16;;;2.42;97.61
23176;BME280;19910;42.652;23.332;2022-12-26T00:14:41;95565.75;;;2.32;97.67
23176;BME280;19910;42.652;23.332;2022-12-26T00:17:08;95565.69;;;2.27;97.92
23176;BME280;19910;42.652;23.332;2022-12-26T00:19:35;95566.69;;;2.21;97.75
23176;BME280;19910;42.652;23.332;2022-12-26T00:22:02;95578.00;;;2.28;97.84
23176;BME280;19910;42.652;23.332;2022-12-26T00:24:30;95579.13;;;2.32;97.14
23176;BME280;19910;42.652;23.332;2022-12-26T00:26:56;95571.53;;;2.24;96.53
23176;BME280;19910;42.652;23.332;2022-12-26T00:29:23;95580.28;;;2.19;96.53
23176;BME280;19910;42.652;23.332;2022-12-26T00:31:50;95578.97;;;2.17;96.84
23176;BME280;19910;42.652;23.332;2022-12-26T00:34:17;95575.97;;;2.13;97.73
23176;BME280;19910;42.652;23.332;2022-12-26T00:36:43;95578.25;;;2.26;97.90
23176;BME280;19910;42.652;23.332;2022-12-26T00:39:10;95576.31;;;2.22;97.41
23176;BME280;19910;42.652;23.332;2022-12-26T00:41:38;95579.53;;;2.19;97.37
23176;BME280;19910;42.652;23.332;2022-12-26T00:44:05;95580.84;;;2.21;97.07
23176;BME280;19910;42.652;23.332;2022-12-26T00:46:32;95584.78;;;2.13;97.45
23176;BME280;19910;42.652;23.332;2022-12-26T00:48:59;95580.59;;;2.23;98.10
23176;BME280;19910;42.652;23.332;2022-12-26T00:51:25;95584.06;;;2.18;97.72
23176;BME280;19910;42.652;23.332;2022-12-26T00:53:52;95582.22;;;2.24;96.96
23176;BME280;19910;42.652;23.332;2022-12-26T00:56:19;95574.84;;;2.09;97.43
23176;BME280;19910;42.652;23.332;2022-12-26T00:58:47;95585.16;;;2.22;96.45
23176;BME280;19910;42.652;23.332;2022-12-26T01:01:16;95584.25;;;2.11;97.53
23176;BME280;19910;42.652;23.332;2022-12-26T01:03:44;95584.78;;;2.13;97.57
23176;BME280;19910;42.652;23.332;2022-12-26T01:06:12;95584.25;;;2.11;97.38
23176;BME280;19910;42.652;23.332;2022-12-26T01:08:39;95591.03;;;1.97;97.75
23176;BME280;19910;42.652;23.332;2022-12-26T01:11:08;95595.25;;;1.93;98.25
23176;BME280;19910;42.652;23.332;2022-12-26T01:13:35;95596.13;;;1.99;98.83
23176;BME280;19910;42.652;23.332;2022-12-26T01:16:04;95594.81;;;2.01;98.39
23176;BME280;19910;42.652;23.332;2022-12-26T01:18:31;95603.16;;;2.05;98.54
23176;BME280;19910;42.652;23.332;2022-12-26T01:21:00;95605.00;;;2.04;98.18
23176;BME280;19910;42.652;23.332;2022-12-26T01:23:27;95608.22;;;2.06;98.55
23176;BME280;19910;42.652;23.332;2022-12-26T01:25:54;95612.97;;;1.99;99.33
23176;BME280;19910;42.652;23.332;2022-12-26T01:28:21;95631.22;;;2.07;98.37
23176;BME280;19910;42.652;23.332;2022-12-26T01:30:48;95625.25;;;2.00;98.58
23176;BME280;19910;42.652;23.332;2022-12-26T01:33:16;95619.53;;;2.13;98.51
23176;BME280;19910;42.652;23.332;2022-12-26T01:35:50;95620.66;;;2.18;98.71
23176;BME280;19910;42.652;23.332;2022-12-26T01:38:17;95623.34;;;2.18;98.16
23176;BME280;19910;42.652;23.332;2022-12-26T01:40:45;95626.38;;;2.04;97.50
23176;BME280;19910;42.652;23.332;2022-12-26T01:43:14;95616.69;;;1.98;97.99
23176;BME280;19910;42.652;23.332;2022-12-26T01:45:43;95612.47;;;2.02;98.60
23176;BME280;19910;42.652;23.332;2022-12-26T01:48:19;95600.28;;;2.11;98.68
23176;BME280;19910;42.652;23.332;2022-12-26T01:50:51;95597.03;;;2.09;99.18
23176;BME280;19910;42.652;23.332;2022-12-26T01:53:23;95601.31;;;2.10;98.77
23176;BME280;19910;42.652;23.332;2022-12-26T01:55:53;95594.81;;;2.01;98.69
23176;BME280;19910;42.652;23.332;2022-12-26T01:58:26;95600.66;;;1.98;98.67
23176;BME280;19910;42.652;23.332;2022-12-26T02:00:56;95594.75;;;1.96;97.18
23176;BME280;19910;42.652;23.332;2022-12-26T02:03:24;95593.19;;;1.78;98.85
23176;BME280;19910;42.652;23.332;2022-12-26T02:06:09;95596.13;;;1.77;98.97
23176;BME280;19910;42.652;23.332;2022-12-26T02:08:38;95590.53;;;1.78;100.00
23176;BME280;19910;42.652;23.332;2022-12-26T02:11:10;95589.78;;;1.83;100.00
23176;BME280;19910;42.652;23.332;2022-12-26T02:13:39;95589.38;;;1.91;100.00
23176;BME280;19910;42.652;23.332;2022-12-26T02:16:08;95586.69;;;1.91;100.00
23176;BME280;19910;42.652;23.332;2022-12-26T02:18:37;95581.34;;;1.91;100.00
23176;BME280;19910;42.652;23.332;2022-12-26T02:21:17;95584.69;;;1.82;99.16
23176;BME280;19910;42.652;23.332;2022-12-26T02:27:09;95574.50;;;1.78;100.00
23176;BME280;19910;42.652;23.332;2022-12-26T02:30:04;95578.75;;;1.74;99.52
23176;BME280;19910;42.652;23.332;2022-12-26T02:33:09;95571.94;;;1.67;98.84
23176;BME280;19910;42.652;23.332;2022-12-26T02:35:50;95572.47;;;1.64;98.98
23176;BME280;19910;42.652;23.332;2022-12-26T02:38:30;95576.19;;;1.63;99.91
23176;BME280;19910;42.652;23.332;2022-12-26T02:41:07;95573.69;;;1.78;99.86
23176;BME280;19910;42.652;23.332;2022-12-26T02:43:40;95573.41;;;1.74;100.00
23176;BME280;19910;42.652;23.332;2022-12-26T02:46:11;95564.47;;;1.64;100.00
23176;BME280;19910;42.652;23.332;2022-12-26T02:49:05;95577.28;;;1.67;99.25
23176;BME280;19910;42.652;23.332;2022-12-26T02:51:46;95567.75;;;1.71;99.02
23176;BME280;19910;42.652;23.332;2022-12-26T02:54:37;95582.03;;;1.60;99.01
23176;BME280;19910;42.652;23.332;2022-12-26T02:57:43;95571.34;;;1.60;99.11
23176;BME280;19910;42.652;23.332;2022-12-26T03:00:31;95572.31;;;1.54;99.19
23176;BME280;19910;42.652;23.332;2022-12-26T03:03:19;95575.63;;;1.61;99.92
23176;BME280;19910;42.652;23.332;2022-12-26T03:06:10;95572.84;;;1.72;100.00
23176;BME280;19910;42.652;23.332;2022-12-26T03:08:59;95567.56;;;1.77;100.00
23176;BME280;19910;42.652;23.332;2022-12-26T03:11:48;95566.94;;;1.70;99.83
23176;BME280;19910;42.652;23.332;2022-12-26T03:14:42;95562.78;;;1.58;98.86
23176;BME280;19910;42.652;23.332;2022-12-26T03:17:14;95581.13;;;1.32;99.41
23176;BME280;19910;42.652;23.332;2022-12-26T03:19:49;95578.47;;;1.32;100.00
23176;BME280;19910;42.652;23.332;2022-12-26T03:22:33;95584.38;;;1.34;99.51
23176;BME280;19910;42.652;23.332;2022-12-26T03:25:04;95581.13;;;1.32;99.76
23176;BME280;19910;42.652;23.332;2022-12-26T03:27:49;95589.88;;;1.28;100.00
23176;BME280;19910;42.652;23.332;2022-12-26T03:30:16;95590.50;;;1.35;100.00
23176;BME280;19910;42.652;23.332;2022-12-26T03:32:57;95610.06;;;1.40;100.00
23176;BME280;19910;42.652;23.332;2022-12-26T03:35:26;95591.81;;;1.54;100.00
23176;BME280;19910;42.652;23.332;2022-12-26T03:37:59;95593.50;;;1.60;100.00
23176;BME280;19910;42.652;23.332;2022-12-26T03:40:39;95592.34;;;1.73;100.00
23176;BME280;19910;42.652;23.332;2022-12-26T03:43:58;95608.25;;;1.63;100.00
23176;BME280;19910;42.652;23.332;2022-12-26T03:46:57;95601.31;;;1.67;100.00
23176;BME280;19910;42.652;23.332;2022-12-26T03:49:45;95596.44;;;1.59;99.88
23176;BME280;19910;42.652;23.332;2022-12-26T03:52:38;95611.97;;;1.62;99.19
23176;BME280;19910;42.652;23.332;2022-12-26T03:55:31;95622.25;;;1.53;99.00
23176;BME280;19910;42.652;23.332;2022-12-26T03:58:21;95619.28;;;1.50;99.62
23176;BME280;19910;42.652;23.332;2022-12-26T04:01:12;95617.72;;;1.54;99.84
23176;BME280;19910;42.652;23.332;2022-12-26T04:03:59;95611.16;;;1.61;99.22
23176;BME280;19910;42.652;23.332;2022-12-26T04:06:49;95616.34;;;1.51;99.21
23176;BME280;19910;42.652;23.332;2022-12-26T04:09:38;95615.88;;;1.37;99.07
23176;BME280;19910;42.652;23.332;2022-12-26T04:12:26;95613.88;;;1.28;98.98
23176;BME280;19910;42.652;23.332;2022-12-26T04:15:19;95610.47;;;1.32;98.84
23176;BME280;19910;42.652;23.332;2022-12-26T04:18:09;95592.06;;;1.14;99.10
23176;BME280;19910;42.652;23.332;2022-12-26T04:21:05;95598.59;;;1.23;99.46
23176;BME280;19910;42.652;23.332;2022-12-26T04:23:55;95592.63;;;1.16;99.38
23176;BME280;19910;42.652;23.332;2022-12-26T04:26:43;95588.44;;;1.20;98.83
23176;BME280;19910;42.652;23.332;2022-12-26T04:29:30;95592.16;;;1.19;99.38
23176;BME280;19910;42.652;23.332;2022-12-26T04:32:22;95595.78;;;1.13;100.00
23176;BME280;19910;42.652;23.332;2022-12-26T04:35:13;95598.88;;;1.22;100.00
23176;BME280;19910;42.652;23.332;2022-12-26T04:37:59;95596.50;;;1.25;100.00
23176;BME280;19910;42.652;23.332;2022-12-26T04:40:48;95598.44;;;1.30;100.00
23176;BME280;19910;42.652;23.332;2022-12-26T04:43:34;95601.91;;;1.30;100.00
23176;BME280;19910;42.652;23.332;2022-12-26T04:46:21;95599.25;;;1.30;100.00
23176;BME280;19910;42.652;23.332;2022-12-26T04:48:50;95602.97;;;1.29;100.00
23176;BME280;19910;42.652;23.332;2022-12-26T04:51:35;95614.44;;;1.30;100.00
23176;BME280;19910;42.652;23.332;2022-12-26T04:54:03;95610.00;;;1.35;100.00
23176;BME280;19910;42.652;23.332;2022-12-26T04:56:30;95612.66;;;1.35;100.00
23176;BME280;19910;42.652;23.332;2022-12-26T04:58:56;95621.72;;;1.34;99.87
23176;BME280;19910;42.652;23.332;2022-12-26T05:01:25;95623.75;;;1.27;100.00
23176;BME280;19910;42.652;23.332;2022-12-26T05:04:12;95616.06;;;1.31;99.90
23176;BME280;19910;42.652;23.332;2022-12-26T05:06:56;95613.00;;;1.22;99.75
23176;BME280;19910;42.652;23.332;2022-12-26T05:09:41;95613.34;;;1.09;99.88
23176;BME280;19910;42.652;23.332;2022-12-26T05:12:09;95614.47;;;1.13;100.00
23176;BME280;19910;42.652;23.332;2022-12-26T05:14:36;95622.06;;;1.04;100.00
23176;BME280;19910;42.652;23.332;2022-12-26T05:17:05;95618.69;;;1.09;100.00
23176;BME280;19910;42.652;23.332;2022-12-26T05:19:50;95619.16;;;1.06;100.00
23176;BME280;19910;42.652;23.332;2022-12-26T05:22:37;95629.34;;;1.09;100.00
23176;BME280;19910;42.652;23.332;2022-12-26T05:25:25;95637.41;;;1.14;100.00
23176;BME280;19910;42.652;23.332;2022-12-26T05:28:09;95656.84;;;0.93;100.00
23176;BME280;19910;42.652;23.332;2022-12-26T05:30:54;95657.00;;;1.03;100.00
23176;BME280;19910;42.652;23.332;2022-12-26T05:33:22;95657.16;;;1.13;100.00
23176;BME280;19910;42.652;23.332;2022-12-26T05:36:07;95656.50;;;1.06;100.00
23176;BME280;19910;42.652;23.332;2022-12-26T05:38:34;95655.94;;;1.04;100.00
23176;BME280;19910;42.652;23.332;2022-12-26T05:41:01;95652.06;;;0.95;100.00
23176;BME280;19910;42.652;23.332;2022-12-26T05:43:28;95640.31;;;0.96;100.00
23176;BME280;19910;42.652;23.332;2022-12-26T05:45:55;95646.16;;;0.93;99.62
23176;BME280;19910;42.652;23.332;2022-12-26T05:48:23;95644.31;;;0.93;100.00
23176;BME280;19910;42.652;23.332;2022-12-26T05:50:50;95648.91;;;0.98;99.85
23176;BME280;19910;42.652;23.332;2022-12-26T05:53:17;95638.06;;;0.88;100.00
23176;BME280;19910;42.652;23.332;2022-12-26T05:55:43;95644.78;;;0.90;100.00
23176;BME280;19910;42.652;23.332;2022-12-26T05:58:10;95652.56;;;0.92;100.00
23176;BME280;19910;42.652;23.332;2022-12-26T06:00:37;95644.59;;;0.97;100.00
23176;BME280;19910;42.652;23.332;2022-12-26T06:03:04;95647.47;;;1.07;100.00
23176;BME280;19910;42.652;23.332;2022-12-26T06:05:32;95646.72;;;1.12;100.00
23176;BME280;19910;42.652;23.332;2022-12-26T06:07:59;95639.94;;;1.21;100.00
23176;BME280;19910;42.652;23.332;2022-12-26T06:10:25;95645.84;;;1.06;100.00
23176;BME280;19910;42.652;23.332;2022-12-26T06:12:53;95651.34;;;1.16;100.00
23176;BME280;19910;42.652;23.332;2022-12-26T06:15:20;95662.56;;;1.18;100.00
23176;BME280;19910;42.652;23.332;2022-12-26T06:17:47;95656.03;;;1.64;100.00
23176;BME280;19910;42.652;23.332;2022-12-26T06:20:14;95642.28;;;1.94;100.00
23176;BME280;19910;42.652;23.332;2022-12-26T06:22:42;95652.09;;;2.32;100.00
23176;BME280;19910;42.652;23.332;2022-12-26T06:25:09;95650.84;;;2.40;99.65
23176;BME280;19910;42.652;23.332;2022-12-26T06:27:36;95663.16;;;2.41;96.87
23176;BME280;19910;42.652;23.332;2022-12-26T06:30:03;95657.34;;;2.49;96.91
23176;BME280;19910;42.652;23.332;2022-12-26T06:32:30;95658.19;;;2.28;95.61
23176;BME280;19910;42.652;23.332;2022-12-26T06:34:56;95662.91;;;2.21;95.49
23176;BME280;19910;42.652;23.332;2022-12-26T06:37:23;95668.22;;;2.16;95.92
23176;BME280;19910;42.652;23.332;2022-12-26T06:39:51;95659.50;;;2.03;96.18
23176;BME280;19910;42.652;23.332;2022-12-26T06:42:18;95665.34;;;2.00;97.11
23176;BME280;19910;42.652;23.332;2022-12-26T06:44:45;95661.66;;;2.06;96.78
23176;BME280;19910;42.652;23.332;2022-12-26T06:47:11;95657.94;;;2.07;97.13
23176;BME280;19910;42.652;23.332;2022-12-26T06:49:38;95658.56;;;2.14;96.28
23176;BME280;19910;42.652;23.332;2022-12-26T06:52:05;95671.81;;;1.66;97.17
23176;BME280;19910;42.652;23.332;2022-12-26T06:54:32;95675.06;;;1.68;98.44
23176;BME280;19910;42.652;23.332;2022-12-26T06:57:01;95672.94;;;1.70;98.00
23176;BME280;19910;42.652;23.332;2022-12-26T06:59:28;95681.66;;;1.82;98.91
23176;BME280;19910;42.652;23.332;2022-12-26T07:01:56;95665.38;;;2.05;99.28
23176;BME280;19910;42.652;23.332;2022-12-26T07:04:23;95671.69;;;2.16;98.81
23176;BME280;19910;42.652;23.332;2022-12-26T07:06:50;95681.31;;;2.39;98.13
23176;BME280;19910;42.652;23.332;2022-12-26T07:09:21;95676.84;;;2.44;97.54
23176;BME280;19910;42.652;23.332;2022-12-26T07:11:49;95684.75;;;2.61;97.04
23176;BME280;19910;42.652;23.332;2022-12-26T07:14:17;95693.97;;;2.70;96.32
23176;BME280;19910;42.652;23.332;2022-12-26T07:16:44;95689.75;;;2.79;97.06
23176;BME280;19910;42.652;23.332;2022-12-26T07:19:14;95699.31;;;2.97;95.97
23176;BME280;19910;42.652;23.332;2022-12-26T07:21:41;95694.59;;;3.09;96.07
23176;BME280;19910;42.652;23.332;2022-12-26T07:24:13;95692.91;;;3.30;95.53
23176;BME280;19910;42.652;23.332;2022-12-26T07:26:40;95698.84;;;3.37;95.25
23176;BME280;19910;42.652;23.332;2022-12-26T07:29:09;95700.47;;;3.38;95.14
23176;BME280;19910;42.652;23.332;2022-12-26T07:31:38;95690.22;;;3.30;95.18
23176;BME280;19910;42.652;23.332;2022-12-26T07:34:06;95687.97;;;3.17;95.77
23176;BME280;19910;42.652;23.332;2022-12-26T07:36:33;95694.09;;;3.44;95.79
23176;BME280;19910;42.652;23.332;2022-12-26T07:39:00;95692.84;;;3.57;94.85
23176;BME280;19910;42.652;23.332;2022-12-26T07:41:27;95684.63;;;3.69;94.35
23176;BME280;19910;42.652;23.332;2022-12-26T07:44:12;95679.78;;;3.66;93.70
23176;BME280;19910;42.652;23.332;2022-12-26T07:46:40;95683.59;;;3.75;94.59
23176;BME280;19910;42.652;23.332;2022-12-26T07:49:07;95668.09;;;3.82;94.64
23176;BME280;19910;42.652;23.332;2022-12-26T07:51:38;95678.00;;;3.81;93.25
23176;BME280;19910;42.652;23.332;2022-12-26T07:54:05;95675.66;;;3.90;93.68
23176;BME280;19910;42.652;23.332;2022-12-26T07:56:32;95669.97;;;3.86;93.28
23176;BME280;19910;42.652;23.332;2022-12-26T07:58:58;95671.34;;;3.89;92.63
23176;BME280;19910;42.652;23.332;2022-12-26T08:01:34;95668.16;;;3.92;93.11
23176;BME280;19910;42.652;23.332;2022-12-26T08:04:02;95663.91;;;4.01;93.20
23176;BME280;19910;42.652;23.332;2022-12-26T08:06:29;95659.47;;;4.22;91.82
23176;BME280;19910;42.652;23.332;2022-12-26T08:08:56;95653.56;;;4.30;90.81
23176;BME280;19910;42.652;23.332;2022-12-26T08:11:23;95655.41;;;4.24;91.78
23176;BME280;19910;42.652;23.332;2022-12-26T08:13:50;95665.13;;;4.31;91.36
23176;BME280;19910;42.652;23.332;2022-12-26T08:16:18;95665.38;;;4.29;90.84
23176;BME280;19910;42.652;23.332;2022-12-26T08:18:45;95664.56;;;4.28;91.73
23176;BME280;19910;42.652;23.332;2022-12-26T08:21:13;95662.47;;;4.36;91.98
23176;BME280;19910;42.652;23.332;2022-12-26T08:23:40;95671.84;;;4.38;90.81
23176;BME280;19910;42.652;23.332;2022-12-26T08:26:08;95671.09;;;4.48;90.65
23176;BME280;19910;42.652;23.332;2022-12-26T08:28:35;95677.00;;;4.50;91.22
23176;BME280;19910;42.652;23.332;2022-12-26T08:31:04;95675.13;;;4.65;91.41
23176;BME280;19910;42.652;23.332;2022-12-26T08:33:32;95677.09;;;4.90;90.00
23176;BME280;19910;42.652;23.332;2022-12-26T08:36:04;95677.66;;;5.03;89.45
23176;BME280;19910;42.652;23.332;2022-12-26T08:38:34;95673.91;;;5.24;88.56
23176;BME280;19910;42.652;23.332;2022-12-26T08:41:00;95677.41;;;5.19;87.70
23176;BME280;19910;42.652;23.332;2022-12-26T08:43:27;95666.38;;;5.21;88.14
23176;BME280;19910;42.652;23.332;2022-12-26T08:45:58;95661.81;;;5.47;87.45
23176;BME280;19910;42.652;23.332;2022-12-26T08:48:25;95653.75;;;5.52;86.12
23176;BME280;19910;42.652;23.332;2022-12-26T08:50:59;95654.56;;;5.42;87.25
23176;BME280;19910;42.652;23.332;2022-12-26T08:53:28;95644.31;;;5.75;86.93
23176;BME280;19910;42.652;23.332;2022-12-26T08:55:58;95646.41;;;5.88;85.65
23176;BME280;19910;42.652;23.332;2022-12-26T08:58:25;95637.25;;;6.09;84.31
23176;BME280;19910;42.652;23.332;2022-12-26T09:00:52;95638.34;;;6.03;84.22
23176;BME280;19910;42.652;23.332;2022-12-26T09:03:19;95636.50;;;5.98;82.97
23176;BME280;19910;42.652;23.332;2022-12-26T09:05:46;95635.91;;;6.12;83.10
23176;BME280;19910;42.652;23.332;2022-12-26T09:08:13;95641.03;;;6.13;82.41
23176;BME280;19910;42.652;23.332;2022-12-26T09:10:40;95642.38;;;6.05;82.43
23176;BME280;19910;42.652;23.332;2022-12-26T09:13:08;95632.97;;;6.03;81.63
23176;BME280;19910;42.652;23.332;2022-12-26T09:15:35;95647.50;;;6.07;80.38
23176;BME280;19910;42.652;23.332;2022-12-26T09:18:01;95637.81;;;6.11;80.18
23176;BME280;19910;42.652;23.332;2022-12-26T09:20:28;95649.69;;;5.90;80.58
23176;BME280;19910;42.652;23.332;2022-12-26T09:22:55;95638.38;;;5.93;80.24
23176;BME280;19910;42.652;23.332;2022-12-26T09:25:23;95641.63;;;5.85;80.64
23176;BME280;19910;42.652;23.332;2022-12-26T09:27:50;95644.84;;;5.97;80.28
23176;BME280;19910;42.652;23.332;2022-12-26T09:30:21;95634.84;;;6.07;80.02
23176;BME280;19910;42.652;23.332;2022-12-26T09:32:48;95637.25;;;6.09;80.49
23176;BME280;19910;42.652;23.332;2022-12-26T09:35:15;95640.50;;;6.11;79.69
23176;BME280;19910;42.652;23.332;2022-12-26T09:37:42;95631.34;;;6.12;79.91
23176;BME280;19910;42.652;23.332;2022-12-26T09:40:19;95631.13;;;5.98;80.58
23176;BME280;19910;42.652;23.332;2022-12-26T09:42:57;95624.41;;;6.01;80.56
23176;BME280;19910;42.652;23.332;2022-12-26T09:45:43;95624.31;;;6.21;81.22
23176;BME280;19910;42.652;23.332;2022-12-26T09:48:14;95623.16;;;6.37;80.60
23176;BME280;19910;42.652;23.332;2022-12-26T09:50:49;95623.56;;;6.65;80.60
23176;BME280;19910;42.652;23.332;2022-12-26T09:53:27;95616.03;;;6.62;78.92
23176;BME280;19910;42.652;23.332;2022-12-26T09:55:57;95621.34;;;6.77;77.98
23176;BME280;19910;42.652;23.332;2022-12-26T09:58:27;95614.47;;;6.56;78.70
23176;BME280;19910;42.652;23.332;2022-12-26T10:01:00;95622.97;;;6.73;78.84
23176;BME280;19910;42.652;23.332;2022-12-26T10:03:29;95607.09;;;6.71;78.43
23176;BME280;19910;42.652;23.332;2022-12-26T10:06:08;95610.59;;;6.72;78.34
23176;BME280;19910;42.652;23.332;2022-12-26T10:08:54;95606.97;;;6.92;78.97
23176;BME280;19910;42.652;23.332;2022-12-26T10:11:33;95595.84;;;6.98;77.29
23176;BME280;19910;42.652;23.332;2022-12-26T10:14:08;95599.41;;;7.28;77.56
23176;BME280;19910;42.652;23.332;2022-12-26T10:16:49;95588.56;;;7.38;76.92
23176;BME280;19910;42.652;23.332;2022-12-26T10:19:33;95576.44;;;7.64;77.06
23176;BME280;19910;42.652;23.332;2022-12-26T10:22:11;95585.13;;;7.56;74.72
23176;BME280;19910;42.652;23.332;2022-12-26T10:24:44;95576.47;;;7.59;74.60
23176;BME280;19910;42.652;23.332;2022-12-26T10:27:14;95567.03;;;7.62;75.28
23176;BME280;19910;42.652;23.332;2022-12-26T10:29:47;95562.44;;;7.62;74.89
23176;BME280;19910;42.652;23.332;2022-12-26T10:32:21;95576.56;;;7.78;75.08
23176;BME280;19910;42.652;23.332;2022-12-26T10:34:51;95552.50;;;7.81;74.03
23176;BME280;19910;42.652;23.332;2022-12-26T10:37:22;95567.19;;;7.70;74.20
23176;BME280;19910;42.652;23.332;2022-12-26T10:39:54;95566.56;;;7.78;74.71
23176;BME280;19910;42.652;23.332;2022-12-26T10:42:25;95552.69;;;7.90;73.99
23176;BME280;19910;42.652;23.332;2022-12-26T10:44:53;95553.59;;;8.04;72.82
23176;BME280;19910;42.652;23.332;2022-12-26T10:47:26;95553.59;;;8.23;72.14
23176;BME280;19910;42.652;23.332;2022-12-26T10:49:53;95553.09;;;8.21;71.95
23176;BME280;19910;42.652;23.332;2022-12-26T10:52:29;95549.66;;;8.15;72.51
23176;BME280;19910;42.652;23.332;2022-12-26T10:54:58;95539.88;;;8.43;71.67
23176;BME280;19910;42.652;23.332;2022-12-26T10:57:27;95552.94;;;8.55;70.68
23176;BME280;19910;42.652;23.332;2022-12-26T10:59:55;95549.38;;;8.41;70.68
23176;BME280;19910;42.652;23.332;2022-12-26T11:02:26;95542.06;;;8.41;71.32
23176;BME280;19910;42.652;23.332;2022-12-26T11:04:58;95536.38;;;8.62;70.89
23176;BME280;19910;42.652;23.332;2022-12-26T11:07:29;95529.75;;;8.54;70.39
23176;BME280;19910;42.652;23.332;2022-12-26T11:09:57;95536.66;;;8.41;70.24
23176;BME280;19910;42.652;23.332;2022-12-26T11:12:26;95534.84;;;8.55;70.97
23176;BME280;19910;42.652;23.332;2022-12-26T11:14:58;95531.56;;;8.59;69.85
23176;BME280;19910;42.652;23.332;2022-12-26T11:17:28;95517.16;;;8.63;69.85
23176;BME280;19910;42.652;23.332;2022-12-26T11:20:17;95519.34;;;8.61;69.58
23176;BME280;19910;42.652;23.332;2022-12-26T11:22:48;95516.44;;;8.76;69.63
23176;BME280;19910;42.652;23.332;2022-12-26T11:25:18;95516.06;;;8.83;68.71
23176;BME280;19910;42.652;23.332;2022-12-26T11:27:47;95510.72;;;8.78;69.33
23176;BME280;19910;42.652;23.332;2022-12-26T11:30:21;95502.31;;;8.98;68.54
23176;BME280;19910;42.652;23.332;2022-12-26T11:33:02;95509.41;;;8.94;68.41
23176;BME280;19910;42.652;23.332;2022-12-26T11:35:30;95504.06;;;8.89;68.78
23176;BME280;19910;42.652;23.332;2022-12-26T11:38:03;95494.72;;;9.00;68.99
23176;BME280;19910;42.652;23.332;2022-12-26T11:40:34;95499.75;;;9.20;68.02
23176;BME280;19910;42.652;23.332;2022-12-26T11:43:04;95497.75;;;9.12;67.80
23176;BME280;19910;42.652;23.332;2022-12-26T11:45:37;95493.97;;;9.27;68.09
23176;BME280;19910;42.652;23.332;2022-12-26T11:48:18;95491.97;;;9.33;67.83
23176;BME280;19910;42.652;23.332;2022-12-26T11:50:47;95485.38;;;9.39;66.86
23176;BME280;19910;42.652;23.332;2022-12-26T11:53:16;95478.38;;;9.51;67.30
23176;BME280;19910;42.652;23.332;2022-12-26T11:55:45;95479.06;;;9.57;66.34
23176;BME280;19910;42.652;23.332;2022-12-26T11:58:22;95481.97;;;9.47;67.01
23176;BME280;19910;42.652;23.332;2022-12-26T12:01:06;95475.19;;;9.63;66.77
23176;BME280;19910;42.652;23.332;2022-12-26T12:03:40;95470.94;;;9.57;65.89
23176;BME280;19910;42.652;23.332;2022-12-26T12:06:18;95478.78;;;9.58;66.09
23176;BME280;19910;42.652;23.332;2022-12-26T12:08:54;95463.56;;;9.62;66.48
23176;BME280;19910;42.652;23.332;2022-12-26T12:11:28;95460.53;;;9.37;67.19
23176;BME280;19910;42.652;23.332;2022-12-26T12:16:59;95458.75;;;9.59;66.57
23176;BME280;19910;42.652;23.332;2022-12-26T12:19:38;95451.94;;;9.62;66.65
23176;BME280;19910;42.652;23.332;2022-12-26T12:25:44;95453.53;;;9.63;65.82
23176;BME280;19910;42.652;23.332;2022-12-26T12:28:30;95457.34;;;9.48;65.93
23176;BME280;19910;42.652;23.332;2022-12-26T12:31:06;95457.44;;;9.71;64.95
23176;BME280;19910;42.652;23.332;2022-12-26T12:33:44;95455.94;;;9.78;64.38
23176;BME280;19910;42.652;23.332;2022-12-26T12:36:20;95455.84;;;9.70;64.39
23176;BME280;19910;42.652;23.332;2022-12-26T12:38:59;95458.84;;;9.68;64.51
23176;BME280;19910;42.652;23.332;2022-12-26T12:41:43;95453.84;;;9.75;64.67
23176;BME280;19910;42.652;23.332;2022-12-26T12:44:21;95463.34;;;9.86;64.79
23176;BME280;19910;42.652;23.332;2022-12-26T12:46:54;95461.53;;;9.95;64.48
23176;BME280;19910;42.652;23.332;2022-12-26T12:49:39;95453.13;;;9.97;63.77
23176;BME280;19910;42.652;23.332;2022-12-26T12:52:16;95463.16;;;9.96;63.61
23176;BME280;19910;42.652;23.332;2022-12-26T12:55:16;95451.38;;;10.01;64.64
23176;BME280;19910;42.652;23.332;2022-12-26T12:57:49;95454.69;;;9.98;63.95
23176;BME280;19910;42.652;23.332;2022-12-26T13:00:19;95457.72;;;9.96;63.80
23176;BME280;19910;42.652;23.332;2022-12-26T13:02:52;95460.84;;;9.90;64.16
23176;BME280;19910;42.652;23.332;2022-12-26T13:05:36;95457.72;;;9.96;64.67
23176;BME280;19910;42.652;23.332;2022-12-26T13:08:11;95455.63;;;9.93;64.55
23176;BME280;19910;42.652;23.332;2022-12-26T13:10:46;95454.13;;;9.87;64.29
23176;BME280;19910;42.652;23.332;2022-12-26T13:13:19;95455.94;;;9.78;65.08
23176;BME280;19910;42.652;23.332;2022-12-26T13:15:48;95454.34;;;9.77;64.14
23176;BME280;19910;42.652;23.332;2022-12-26T13:18:21;95448.53;;;9.70;64.04
23176;BME280;19910;42.652;23.332;2022-12-26T13:20:50;95449.31;;;9.71;64.25
23176;BME280;19910;42.652;23.332;2022-12-26T13:23:24;95452.34;;;9.69;63.82
23176;BME280;19910;42.652;23.332;2022-12-26T13:26:15;95459.16;;;9.53;63.65
23176;BME280;19910;42.652;23.332;2022-12-26T13:28:52;95459.97;;;9.67;64.30
23176;BME280;19910;42.652;23.332;2022-12-26T13:31:20;95456.53;;;9.75;63.86
23176;BME280;19910;42.652;23.332;2022-12-26T13:33:47;95454.13;;;9.74;63.94
23176;BME280;19910;42.652;23.332;2022-12-26T13:36:32;95447.53;;;9.66;64.16
23176;BME280;19910;42.652;23.332;2022-12-26T13:39:28;95453.53;;;9.63;64.05